PWSweather.com
Personal Weather Stations
Station Observations
IPODRAVI2
Croatia, Trnovec BartoloveckiHR

CroatiaTrnovec BartoloveckiHR

Lat: 46.2947, Lon: 16.3989

Elevation: 535

Station Type: Davis Vantage Pro2 plus

http://www.pljusak.com/trnovec1/wx.html

High Low Average
Temperature 79.4°F26.3°F 56.0°F13.3°F 66.0°F18.9°F
Dew Point 66.2°F19.0°F 52.5°F11.4°F 60.7°F15.9°F
Winds 14.4 mph NE23.2 mph NE Calm Calm 1.9 mph 3.1 mph
Wind Gusts 20.0 mph32.2 mph -- 3.7 mph6.0 mph
Humidity 96% 55% 84%
Pressure 30.08 in1018.60 in 29.74 in1007.10 in -
Precipitation 0.77 in19.60 in - -
Hour Temp Dew Point Humidity Winds Wind Gusts Pressure Precip Precip Rate Daily Precip Total
12:00 AM 66.7°F19.3°C 60.7°F15.9°C 81% 2.5 mph SW4.0 kmh SW 4.0 mph6.4 kmh 29.76 in1007.8 mb 0.00 in0.0 mm 0.00 in/hr0.0 mm/hr 0.00 in0.0 mm
12:10 AM 66.4°F19.1°C 60.7°F15.9°C 82% 2.2 mph SSW3.5 kmh SSW 5.0 mph8.0 kmh 29.76 in1007.8 mb 0.00 in0.0 mm 0.00 in/hr0.0 mm/hr 0.00 in0.0 mm
12:20 AM 66.4°F19.1°C 60.7°F15.9°C 82% 5.5 mph SW8.9 kmh SW 8.0 mph12.9 kmh 29.76 in1007.8 mb 0.00 in0.0 mm 0.00 in/hr0.0 mm/hr 0.00 in0.0 mm
12:30 AM 66.7°F19.3°C 61.0°F16.1°C 82% 2.2 mph SW3.5 kmh SW 5.0 mph8.0 kmh 29.76 in1007.8 mb 0.00 in0.0 mm 0.00 in/hr0.0 mm/hr 0.00 in0.0 mm
12:40 AM 66.6°F19.2°C 60.9°F16.1°C 82% 3.4 mph WSW5.5 kmh WSW 6.0 mph9.7 kmh 29.76 in1007.8 mb 0.00 in0.0 mm 0.00 in/hr0.0 mm/hr 0.00 in0.0 mm
12:50 AM 66.6°F19.2°C 60.9°F16.1°C 82% 1.8 mph SSW2.9 kmh SSW 6.0 mph9.7 kmh 29.75 in1007.5 mb 0.00 in0.0 mm 0.00 in/hr0.0 mm/hr 0.00 in0.0 mm
01:00 AM 66.4°F19.1°C 60.7°F15.9°C 82% 1.2 mph S1.9 kmh S 2.0 mph3.2 kmh 29.75 in1007.5 mb 0.00 in0.0 mm 0.00 in/hr0.0 mm/hr 0.00 in0.0 mm
01:10 AM 66.3°F19.1°C 61.3°F16.3°C 84% 0.8 mph SSW1.3 kmh SSW 2.0 mph3.2 kmh 29.76 in1007.8 mb 0.00 in0.0 mm 0.00 in/hr0.0 mm/hr 0.00 in0.0 mm
01:20 AM 65.9°F18.8°C 61.3°F16.3°C 85% 0.3 mph SW0.5 kmh SW 2.0 mph3.2 kmh 29.75 in1007.5 mb 0.00 in0.0 mm 0.00 in/hr0.0 mm/hr 0.00 in0.0 mm
01:30 AM 65.5°F18.6°C 61.2°F16.2°C 86% 0.7 mph SW1.1 kmh SW 3.0 mph4.8 kmh 29.75 in1007.5 mb 0.00 in0.0 mm 0.00 in/hr0.0 mm/hr 0.00 in0.0 mm
01:40 AM 65.3°F18.5°C 61.3°F16.3°C 87% 0.5 mph WSW0.8 kmh WSW 1.0 mph1.6 kmh 29.75 in1007.5 mb 0.01 in0.3 mm 0.06 in/hr1.5 mm/hr 0.01 in0.3 mm
01:50 AM 65.0°F18.3°C 61.1°F16.2°C 87% 0.1 mph WNW0.2 kmh WNW 1.0 mph1.6 kmh 29.76 in1007.8 mb 0.00 in0.0 mm 0.00 in/hr0.0 mm/hr 0.01 in0.3 mm
02:00 AM 64.9°F18.3°C 61.2°F16.2°C 88% Calm Calm -- 29.75 in1007.5 mb 0.01 in0.3 mm 0.01 in/hr0.3 mm/hr 0.02 in0.5 mm
02:10 AM 64.7°F18.2°C 61.4°F16.3°C 89% Calm Calm -- 29.75 in1007.5 mb 0.00 in0.0 mm 0.00 in/hr0.0 mm/hr 0.02 in0.5 mm
02:20 AM 64.4°F18.0°C 61.4°F16.3°C 90% 0.4 mph WNW0.6 kmh WNW 2.0 mph3.2 kmh 29.75 in1007.5 mb 0.00 in0.0 mm 0.00 in/hr0.0 mm/hr 0.02 in0.5 mm
02:30 AM 64.5°F18.1°C 61.2°F16.2°C 89% 1.5 mph W2.4 kmh W 3.0 mph4.8 kmh 29.75 in1007.5 mb 0.00 in0.0 mm 0.00 in/hr0.0 mm/hr 0.02 in0.5 mm
02:40 AM 64.5°F18.1°C 61.5°F16.4°C 90% Calm Calm -- 29.75 in1007.5 mb 0.00 in0.0 mm 0.00 in/hr0.0 mm/hr 0.02 in0.5 mm
02:50 AM 64.4°F18.0°C 61.4°F16.3°C 90% Calm Calm -- 29.74 in1007.1 mb 0.00 in0.0 mm 0.00 in/hr0.0 mm/hr 0.02 in0.5 mm
03:00 AM 64.3°F17.9°C 61.6°F16.4°C 91% Calm Calm 1.0 mph1.6 kmh 29.75 in1007.5 mb 0.01 in0.3 mm 0.01 in/hr0.3 mm/hr 0.02 in0.5 mm
03:10 AM 64.2°F17.9°C 61.5°F16.4°C 91% Calm Calm -- 29.74 in1007.1 mb 0.00 in0.0 mm 0.00 in/hr0.0 mm/hr 0.02 in0.5 mm
03:20 AM 64.2°F17.9°C 61.5°F16.4°C 91% 0.1 mph W0.2 kmh W 2.0 mph3.2 kmh 29.74 in1007.1 mb 0.01 in0.3 mm 0.06 in/hr1.5 mm/hr 0.03 in0.8 mm
03:30 AM 64.1°F17.8°C 61.7°F16.5°C 92% 0.9 mph W1.4 kmh W 2.0 mph3.2 kmh 29.74 in1007.1 mb 0.05 in1.3 mm 0.30 in/hr7.6 mm/hr 0.07 in1.8 mm
03:40 AM 64.0°F17.8°C 61.6°F16.4°C 92% 2.1 mph WSW3.4 kmh WSW 3.0 mph4.8 kmh 29.74 in1007.1 mb 0.03 in0.8 mm 0.18 in/hr4.6 mm/hr 0.09 in2.3 mm
03:50 AM 63.9°F17.7°C 61.5°F16.4°C 92% 1.7 mph WSW2.7 kmh WSW 4.0 mph6.4 kmh 29.75 in1007.5 mb 0.01 in0.3 mm 0.06 in/hr1.5 mm/hr 0.10 in2.5 mm
04:00 AM 63.8°F17.7°C 61.7°F16.5°C 93% 3.4 mph SW5.5 kmh SW 4.0 mph6.4 kmh 29.75 in1007.5 mb 0.02 in0.5 mm 0.02 in/hr0.5 mm/hr 0.12 in3.0 mm
04:10 AM 63.6°F17.6°C 61.6°F16.4°C 93% 1.6 mph SW2.6 kmh SW 4.0 mph6.4 kmh 29.75 in1007.5 mb 0.01 in0.3 mm 0.06 in/hr1.5 mm/hr 0.13 in3.3 mm
04:20 AM 63.6°F17.6°C 61.5°F16.4°C 93% 1.9 mph SW3.1 kmh SW 4.0 mph6.4 kmh 29.75 in1007.5 mb 0.00 in0.0 mm 0.00 in/hr0.0 mm/hr 0.13 in3.3 mm
04:31 AM 63.6°F17.6°C 61.6°F16.4°C 93% 3.0 mph WSW4.8 kmh WSW 5.0 mph8.0 kmh 29.76 in1007.8 mb 0.03 in0.8 mm 0.16 in/hr4.1 mm/hr 0.17 in4.3 mm
04:40 AM 63.7°F17.6°C 61.9°F16.6°C 94% 1.6 mph W2.6 kmh W 4.0 mph6.4 kmh 29.75 in1007.5 mb 0.02 in0.5 mm 0.13 in/hr3.3 mm/hr 0.18 in4.6 mm
04:50 AM 63.9°F17.7°C 62.1°F16.7°C 94% 3.1 mph W5.0 kmh W 6.0 mph9.7 kmh 29.76 in1007.8 mb 0.02 in0.5 mm 0.12 in/hr3.0 mm/hr 0.20 in5.1 mm
05:00 AM 64.0°F17.8°C 62.2°F16.8°C 94% 3.9 mph SW6.3 kmh SW 4.0 mph6.4 kmh 29.76 in1007.8 mb 0.07 in1.8 mm 0.08 in/hr2.0 mm/hr 0.27 in6.9 mm
05:10 AM 63.8°F17.7°C 62.1°F16.7°C 94% 2.3 mph WSW3.7 kmh WSW 4.0 mph6.4 kmh 29.76 in1007.8 mb 0.09 in2.3 mm 0.54 in/hr13.7 mm/hr 0.35 in8.9 mm
05:20 AM 63.5°F17.5°C 61.7°F16.5°C 94% 2.3 mph SW3.7 kmh SW 3.0 mph4.8 kmh 29.76 in1007.8 mb 0.10 in2.5 mm 0.60 in/hr15.2 mm/hr 0.45 in11.4 mm
05:30 AM 63.3°F17.4°C 61.8°F16.6°C 95% 0.5 mph W0.8 kmh W 2.0 mph3.2 kmh 29.77 in1008.1 mb 0.05 in1.3 mm 0.30 in/hr7.6 mm/hr 0.49 in12.4 mm
05:40 AM 63.2°F17.3°C 61.7°F16.5°C 95% 1.5 mph W2.4 kmh W 3.0 mph4.8 kmh 29.77 in1008.1 mb 0.04 in1.0 mm 0.24 in/hr6.1 mm/hr 0.52 in13.2 mm
05:50 AM 63.2°F17.3°C 61.7°F16.5°C 95% Calm Calm 1.0 mph1.6 kmh 29.76 in1007.8 mb 0.02 in0.5 mm 0.12 in/hr3.0 mm/hr 0.54 in13.7 mm
06:01 AM 63.2°F17.3°C 61.7°F16.5°C 95% Calm Calm -- 29.76 in1007.8 mb 0.01 in0.3 mm 0.01 in/hr0.3 mm/hr 0.55 in14.0 mm
06:10 AM 63.2°F17.3°C 62.0°F16.7°C 96% 0.1 mph W0.2 kmh W 1.0 mph1.6 kmh 29.76 in1007.8 mb 0.00 in0.0 mm 0.00 in/hr0.0 mm/hr 0.55 in14.0 mm
06:21 AM 63.3°F17.4°C 62.1°F16.7°C 96% 0.4 mph W0.6 kmh W 2.0 mph3.2 kmh 29.76 in1007.8 mb 0.00 in0.0 mm 0.00 in/hr0.0 mm/hr 0.55 in14.0 mm
06:30 AM 63.2°F17.3°C 62.1°F16.7°C 96% Calm Calm -- 29.76 in1007.8 mb 0.00 in0.0 mm 0.00 in/hr0.0 mm/hr 0.55 in14.0 mm
06:40 AM 63.3°F17.4°C 62.1°F16.7°C 96% Calm Calm -- 29.76 in1007.8 mb 0.00 in0.0 mm 0.00 in/hr0.0 mm/hr 0.55 in14.0 mm
06:50 AM 63.4°F17.4°C 62.2°F16.8°C 96% Calm Calm -- 29.76 in1007.8 mb 0.00 in0.0 mm 0.00 in/hr0.0 mm/hr 0.55 in14.0 mm
07:01 AM 63.4°F17.4°C 62.2°F16.8°C 96% 0.5 mph NW0.8 kmh NW 1.0 mph1.6 kmh 29.78 in1008.5 mb 0.00 in0.0 mm 0.00 in/hr0.0 mm/hr 0.56 in14.2 mm
07:10 AM 63.5°F17.5°C 62.3°F16.8°C 96% 0.7 mph NW1.1 kmh NW 2.0 mph3.2 kmh 29.77 in1008.1 mb 0.08 in2.0 mm 0.53 in/hr13.5 mm/hr 0.63 in16.0 mm
07:20 AM 63.5°F17.5°C 62.4°F16.9°C 96% 0.4 mph NW0.6 kmh NW 3.0 mph4.8 kmh 29.78 in1008.5 mb 0.02 in0.5 mm 0.12 in/hr3.0 mm/hr 0.65 in16.5 mm
07:30 AM 63.6°F17.6°C 62.4°F16.9°C 96% 0.5 mph NW0.8 kmh NW 2.0 mph3.2 kmh 29.78 in1008.5 mb 0.01 in0.3 mm 0.06 in/hr1.5 mm/hr 0.65 in16.5 mm
07:40 AM 63.8°F17.7°C 62.6°F17.0°C 96% Calm Calm -- 29.78 in1008.5 mb 0.01 in0.3 mm 0.06 in/hr1.5 mm/hr 0.66 in16.8 mm
07:50 AM 63.9°F17.7°C 62.8°F17.1°C 96% Calm Calm -- 29.79 in1008.8 mb 0.00 in0.0 mm 0.00 in/hr0.0 mm/hr 0.66 in16.8 mm
08:00 AM 64.1°F17.8°C 63.0°F17.2°C 96% Calm Calm -- 29.79 in1008.8 mb 0.00 in0.0 mm 0.00 in/hr0.0 mm/hr 0.66 in16.8 mm
08:10 AM 64.3°F17.9°C 63.1°F17.3°C 96% Calm Calm 1.0 mph1.6 kmh 29.79 in1008.8 mb 0.00 in0.0 mm 0.00 in/hr0.0 mm/hr 0.66 in16.8 mm
08:20 AM 64.4°F18.0°C 63.3°F17.4°C 96% Calm Calm -- 29.79 in1008.8 mb 0.00 in0.0 mm 0.00 in/hr0.0 mm/hr 0.66 in16.8 mm
08:31 AM 64.5°F18.1°C 63.0°F17.2°C 95% 0.2 mph NW0.3 kmh NW 2.0 mph3.2 kmh 29.80 in1009.1 mb 0.00 in0.0 mm 0.00 in/hr0.0 mm/hr 0.66 in16.8 mm
08:40 AM 64.7°F18.2°C 63.3°F17.4°C 95% Calm Calm -- 29.80 in1009.1 mb 0.00 in0.0 mm 0.00 in/hr0.0 mm/hr 0.66 in16.8 mm
08:50 AM 64.9°F18.3°C 63.1°F17.3°C 94% 0.4 mph NW0.6 kmh NW 3.0 mph4.8 kmh 29.80 in1009.1 mb 0.00 in0.0 mm 0.00 in/hr0.0 mm/hr 0.66 in16.8 mm
09:10 AM 65.7°F18.7°C 63.9°F17.7°C 94% 0.3 mph NW0.5 kmh NW 2.0 mph3.2 kmh 29.80 in1009.1 mb 0.00 in0.0 mm 0.00 in/hr0.0 mm/hr 0.66 in16.8 mm
09:20 AM 65.9°F18.8°C 63.8°F17.7°C 93% Calm Calm -- 29.81 in1009.5 mb 0.00 in0.0 mm 0.00 in/hr0.0 mm/hr 0.66 in16.8 mm
09:30 AM 66.4°F19.1°C 64.3°F17.9°C 93% Calm Calm -- 29.80 in1009.1 mb 0.00 in0.0 mm 0.00 in/hr0.0 mm/hr 0.66 in16.8 mm
09:41 AM 67.0°F19.4°C 64.6°F18.1°C 92% 0.5 mph NW0.8 kmh NW 2.0 mph3.2 kmh 29.81 in1009.5 mb 0.00 in0.0 mm 0.00 in/hr0.0 mm/hr 0.66 in16.8 mm
09:50 AM 67.2°F19.6°C 64.5°F18.1°C 91% 1.2 mph W1.9 kmh W 3.0 mph4.8 kmh 29.82 in1009.8 mb 0.00 in0.0 mm 0.00 in/hr0.0 mm/hr 0.66 in16.8 mm
10:01 AM 67.8°F19.9°C 65.1°F18.4°C 91% Calm Calm 1.0 mph1.6 kmh 29.81 in1009.5 mb 0.00 in0.0 mm 0.00 in/hr0.0 mm/hr 0.66 in16.8 mm
10:10 AM 68.7°F20.4°C 65.0°F18.3°C 88% Calm Calm -- 29.81 in1009.5 mb 0.00 in0.0 mm 0.00 in/hr0.0 mm/hr 0.66 in16.8 mm
10:20 AM 69.1°F20.6°C 65.1°F18.4°C 87% 0.1 mph WNW0.2 kmh WNW -- 29.82 in1009.8 mb 0.00 in0.0 mm 0.00 in/hr0.0 mm/hr 0.66 in16.8 mm
10:31 AM 69.3°F20.7°C 65.6°F18.7°C 88% 2.0 mph NW3.2 kmh NW 4.0 mph6.4 kmh 29.81 in1009.5 mb 0.00 in0.0 mm 0.00 in/hr0.0 mm/hr 0.66 in16.8 mm
10:41 AM 69.4°F20.8°C 65.7°F18.7°C 88% 4.2 mph NNW6.8 kmh NNW 8.0 mph12.9 kmh 29.82 in1009.8 mb 0.00 in0.0 mm 0.00 in/hr0.0 mm/hr 0.66 in16.8 mm
10:51 AM 69.4°F20.8°C 65.7°F18.7°C 88% 0.6 mph NNW1.0 kmh NNW 1.0 mph1.6 kmh 29.82 in1009.8 mb 0.00 in0.0 mm 0.00 in/hr0.0 mm/hr 0.66 in16.8 mm
11:01 AM 70.4°F21.3°C 65.3°F18.5°C 84% 0.1 mph NNW0.2 kmh NNW 1.0 mph1.6 kmh 29.82 in1009.8 mb 0.00 in0.0 mm 0.00 in/hr0.0 mm/hr 0.66 in16.8 mm
11:10 AM 71.0°F21.7°C 65.3°F18.5°C 82% 1.0 mph ESE1.6 kmh ESE 4.0 mph6.4 kmh 29.82 in1009.8 mb 0.00 in0.0 mm 0.00 in/hr0.0 mm/hr 0.66 in16.8 mm
11:20 AM 71.7°F22.1°C 65.6°F18.7°C 81% 1.0 mph SE1.6 kmh SE 3.0 mph4.8 kmh 29.82 in1009.8 mb 0.00 in0.0 mm 0.00 in/hr0.0 mm/hr 0.66 in16.8 mm
11:30 AM 71.9°F22.2°C 65.0°F18.3°C 79% 3.4 mph SE5.5 kmh SE 4.0 mph6.4 kmh 29.82 in1009.8 mb 0.00 in0.0 mm 0.00 in/hr0.0 mm/hr 0.66 in16.8 mm
11:40 AM 71.7°F22.1°C 65.5°F18.6°C 81% 2.7 mph SSE4.3 kmh SSE 4.0 mph6.4 kmh 29.82 in1009.8 mb 0.00 in0.0 mm 0.00 in/hr0.0 mm/hr 0.66 in16.8 mm
11:50 AM 72.1°F22.3°C 66.0°F18.9°C 81% 2.5 mph S4.0 kmh S 3.0 mph4.8 kmh 29.82 in1009.8 mb 0.00 in0.0 mm 0.00 in/hr0.0 mm/hr 0.66 in16.8 mm
12:00 PM 72.6°F22.6°C 65.3°F18.5°C 78% 2.3 mph S3.7 kmh S 7.0 mph11.3 kmh 29.82 in1009.8 mb 0.00 in0.0 mm 0.00 in/hr0.0 mm/hr 0.66 in16.8 mm
12:10 PM 73.0°F22.8°C 65.4°F18.6°C 77% 5.0 mph SE8.0 kmh SE 7.0 mph11.3 kmh 29.82 in1009.8 mb 0.00 in0.0 mm 0.00 in/hr0.0 mm/hr 0.66 in16.8 mm
12:20 PM 73.8°F23.2°C 66.1°F18.9°C 77% 4.1 mph SSE6.6 kmh SSE 7.0 mph11.3 kmh 29.82 in1009.8 mb 0.00 in0.0 mm 0.00 in/hr0.0 mm/hr 0.66 in16.8 mm
12:30 PM 74.2°F23.4°C 65.7°F18.7°C 75% 2.6 mph SE4.2 kmh SE 5.0 mph8.0 kmh 29.82 in1009.8 mb 0.00 in0.0 mm 0.00 in/hr0.0 mm/hr 0.66 in16.8 mm
12:40 PM 74.9°F23.8°C 65.7°F18.7°C 73% 3.0 mph SE4.8 kmh SE 9.0 mph14.5 kmh 29.82 in1009.8 mb 0.00 in0.0 mm 0.00 in/hr0.0 mm/hr 0.66 in16.8 mm
12:50 PM 74.6°F23.7°C 64.6°F18.1°C 71% 0.4 mph SSE0.6 kmh SSE 1.0 mph1.6 kmh 29.82 in1009.8 mb 0.00 in0.0 mm 0.00 in/hr0.0 mm/hr 0.66 in16.8 mm
01:00 PM 74.7°F23.7°C 66.2°F19.0°C 75% 3.7 mph SSE6.0 kmh SSE 8.0 mph12.9 kmh 29.82 in1009.8 mb 0.00 in0.0 mm 0.00 in/hr0.0 mm/hr 0.66 in16.8 mm
01:10 PM 74.7°F23.7°C 64.2°F17.9°C 70% 0.7 mph SE1.1 kmh SE 4.0 mph6.4 kmh 29.82 in1009.8 mb 0.00 in0.0 mm 0.00 in/hr0.0 mm/hr 0.66 in16.8 mm
01:20 PM 75.0°F23.9°C 64.1°F17.8°C 69% 1.2 mph SE1.9 kmh SE 3.0 mph4.8 kmh 29.82 in1009.8 mb 0.00 in0.0 mm 0.00 in/hr0.0 mm/hr 0.66 in16.8 mm
01:30 PM 75.7°F24.3°C 64.4°F18.0°C 68% 3.3 mph ESE5.3 kmh ESE 4.0 mph6.4 kmh 29.82 in1009.8 mb 0.00 in0.0 mm 0.00 in/hr0.0 mm/hr 0.66 in16.8 mm
01:40 PM 76.8°F24.9°C 65.0°F18.3°C 67% 1.2 mph ESE1.9 kmh ESE 3.0 mph4.8 kmh 29.82 in1009.8 mb 0.00 in0.0 mm 0.00 in/hr0.0 mm/hr 0.66 in16.8 mm
01:50 PM 76.4°F24.7°C 64.6°F18.1°C 67% 2.6 mph SSE4.2 kmh SSE 6.0 mph9.7 kmh 29.82 in1009.8 mb 0.00 in0.0 mm 0.00 in/hr0.0 mm/hr 0.66 in16.8 mm
02:00 PM 76.4°F24.7°C 64.6°F18.1°C 67% 1.8 mph SE2.9 kmh SE 3.0 mph4.8 kmh 29.82 in1009.8 mb 0.00 in0.0 mm 0.00 in/hr0.0 mm/hr 0.66 in16.8 mm
02:10 PM 76.8°F24.9°C 63.7°F17.6°C 64% 0.5 mph SW0.8 kmh SW 3.0 mph4.8 kmh 29.82 in1009.8 mb 0.00 in0.0 mm 0.00 in/hr0.0 mm/hr 0.66 in16.8 mm
02:20 PM 77.4°F25.2°C 62.9°F17.2°C 61% 0.6 mph SW1.0 kmh SW 3.0 mph4.8 kmh 29.82 in1009.8 mb 0.00 in0.0 mm 0.00 in/hr0.0 mm/hr 0.66 in16.8 mm
02:30 PM 77.8°F25.4°C 63.7°F17.6°C 62% 0.5 mph WSW0.8 kmh WSW 3.0 mph4.8 kmh 29.82 in1009.8 mb 0.00 in0.0 mm 0.00 in/hr0.0 mm/hr 0.66 in16.8 mm
02:40 PM 77.8°F25.4°C 62.8°F17.1°C 60% 2.5 mph WSW4.0 kmh WSW 6.0 mph9.7 kmh 29.82 in1009.8 mb 0.00 in0.0 mm 0.00 in/hr0.0 mm/hr 0.66 in16.8 mm
02:50 PM 78.5°F25.8°C 63.5°F17.5°C 60% Calm Calm -- 29.82 in1009.8 mb 0.00 in0.0 mm 0.00 in/hr0.0 mm/hr 0.66 in16.8 mm
03:00 PM 78.5°F25.8°C 62.5°F16.9°C 58% 0.8 mph WSW1.3 kmh WSW 2.0 mph3.2 kmh 29.82 in1009.8 mb 0.00 in0.0 mm 0.00 in/hr0.0 mm/hr 0.66 in16.8 mm
03:10 PM 78.2°F25.7°C 62.2°F16.8°C 58% 1.3 mph S2.1 kmh S 3.0 mph4.8 kmh 29.82 in1009.8 mb 0.00 in0.0 mm 0.00 in/hr0.0 mm/hr 0.66 in16.8 mm
03:20 PM 78.2°F25.7°C 63.2°F17.3°C 60% 2.6 mph S4.2 kmh S 6.0 mph9.7 kmh 29.82 in1009.8 mb 0.00 in0.0 mm 0.00 in/hr0.0 mm/hr 0.66 in16.8 mm
03:30 PM 78.3°F25.7°C 61.8°F16.6°C 57% 0.3 mph S0.5 kmh S 1.0 mph1.6 kmh 29.82 in1009.8 mb 0.00 in0.0 mm 0.00 in/hr0.0 mm/hr 0.66 in16.8 mm
03:40 PM 78.5°F25.8°C 61.0°F16.1°C 55% Calm Calm -- 29.83 in1010.2 mb 0.00 in0.0 mm 0.00 in/hr0.0 mm/hr 0.66 in16.8 mm
03:50 PM 79.4°F26.3°C 63.3°F17.4°C 58% 1.3 mph SE2.1 kmh SE 3.0 mph4.8 kmh 29.84 in1010.5 mb 0.00 in0.0 mm 0.00 in/hr0.0 mm/hr 0.66 in16.8 mm
04:00 PM 78.6°F25.9°C 63.0°F17.2°C 59% 1.0 mph E1.6 kmh E 3.0 mph4.8 kmh 29.84 in1010.5 mb 0.00 in0.0 mm 0.00 in/hr0.0 mm/hr 0.66 in16.8 mm
04:10 PM 77.9°F25.5°C 62.9°F17.2°C 60% 2.4 mph ENE3.9 kmh ENE 7.0 mph11.3 kmh 29.85 in1010.8 mb 0.00 in0.0 mm 0.00 in/hr0.0 mm/hr 0.66 in16.8 mm
04:20 PM 74.2°F23.4°C 61.3°F16.3°C 64% 10.0 mph ENE16.1 kmh ENE 18.0 mph29.0 kmh 29.86 in1011.2 mb 0.00 in0.0 mm 0.00 in/hr0.0 mm/hr 0.66 in16.8 mm
04:30 PM 70.3°F21.3°C 60.4°F15.8°C 71% 8.7 mph ENE14.0 kmh ENE 16.0 mph25.7 kmh 29.87 in1011.5 mb 0.00 in0.0 mm 0.00 in/hr0.0 mm/hr 0.66 in16.8 mm
04:40 PM 68.9°F20.5°C 59.1°F15.1°C 71% 14.4 mph NE23.2 kmh NE 20.0 mph32.2 kmh 29.88 in1011.9 mb 0.00 in0.0 mm 0.00 in/hr0.0 mm/hr 0.66 in16.8 mm
04:50 PM 66.9°F19.4°C 58.7°F14.8°C 75% 11.4 mph NE18.3 kmh NE 15.0 mph24.1 kmh 29.89 in1012.2 mb 0.00 in0.0 mm 0.00 in/hr0.0 mm/hr 0.66 in16.8 mm
05:00 PM 65.8°F18.8°C 58.8°F14.9°C 78% 9.0 mph ENE14.5 kmh ENE 15.0 mph24.1 kmh 29.90 in1012.5 mb 0.00 in0.0 mm 0.00 in/hr0.0 mm/hr 0.66 in16.8 mm
05:10 PM 64.8°F18.2°C 59.9°F15.5°C 84% 6.4 mph E10.3 kmh E 8.0 mph12.9 kmh 29.92 in1013.2 mb 0.02 in0.5 mm 0.12 in/hr3.0 mm/hr 0.69 in17.5 mm
05:20 PM 63.8°F17.7°C 59.9°F15.5°C 87% 5.6 mph E9.0 kmh E 10.0 mph16.1 kmh 29.92 in1013.2 mb 0.00 in0.0 mm 0.00 in/hr0.0 mm/hr 0.69 in17.5 mm
05:30 PM 63.2°F17.3°C 59.9°F15.5°C 89% 3.2 mph E5.1 kmh E 8.0 mph12.9 kmh 29.92 in1013.2 mb 0.01 in0.3 mm 0.06 in/hr1.5 mm/hr 0.69 in17.5 mm
05:40 PM 62.8°F17.1°C 59.8°F15.4°C 90% 6.8 mph E10.9 kmh E 10.0 mph16.1 kmh 29.93 in1013.5 mb 0.01 in0.3 mm 0.06 in/hr1.5 mm/hr 0.70 in17.8 mm
05:50 PM 62.4°F16.9°C 59.8°F15.4°C 91% 4.6 mph E7.4 kmh E 8.0 mph12.9 kmh 29.93 in1013.5 mb 0.00 in0.0 mm 0.00 in/hr0.0 mm/hr 0.70 in17.8 mm
06:00 PM 62.2°F16.8°C 59.5°F15.3°C 91% 6.1 mph E9.8 kmh E 9.0 mph14.5 kmh 29.94 in1013.9 mb 0.00 in0.0 mm 0.00 in/hr0.0 mm/hr 0.70 in17.8 mm
06:10 PM 62.1°F16.7°C 59.4°F15.2°C 91% 2.0 mph E3.2 kmh E 4.0 mph6.4 kmh 29.95 in1014.2 mb 0.00 in0.0 mm 0.00 in/hr0.0 mm/hr 0.70 in17.8 mm
06:20 PM 62.1°F16.7°C 59.4°F15.2°C 91% 5.3 mph ESE8.5 kmh ESE 8.0 mph12.9 kmh 29.95 in1014.2 mb 0.00 in0.0 mm 0.00 in/hr0.0 mm/hr 0.70 in17.8 mm
06:31 PM 62.2°F16.8°C 59.5°F15.3°C 91% 4.4 mph ENE7.1 kmh ENE 6.0 mph9.7 kmh 29.95 in1014.2 mb 0.00 in0.0 mm 0.00 in/hr0.0 mm/hr 0.70 in17.8 mm
06:40 PM 62.2°F16.8°C 59.5°F15.3°C 91% 4.4 mph NE7.1 kmh NE 6.0 mph9.7 kmh 29.96 in1014.6 mb 0.00 in0.0 mm 0.00 in/hr0.0 mm/hr 0.70 in17.8 mm
06:50 PM 62.0°F16.7°C 58.7°F14.8°C 89% 4.9 mph NE7.9 kmh NE 9.0 mph14.5 kmh 29.97 in1014.9 mb 0.00 in0.0 mm 0.00 in/hr0.0 mm/hr 0.70 in17.8 mm
07:01 PM 61.9°F16.6°C 58.0°F14.4°C 87% 4.2 mph E6.8 kmh E 6.0 mph9.7 kmh 29.97 in1014.9 mb 0.00 in0.0 mm 0.00 in/hr0.0 mm/hr 0.70 in17.8 mm
07:10 PM 61.7°F16.5°C 57.5°F14.2°C 86% 3.0 mph ENE4.8 kmh ENE 4.0 mph6.4 kmh 29.98 in1015.2 mb 0.00 in0.0 mm 0.00 in/hr0.0 mm/hr 0.70 in17.8 mm
07:20 PM 61.4°F16.3°C 56.5°F13.6°C 84% 3.5 mph E5.6 kmh E 4.0 mph6.4 kmh 29.99 in1015.6 mb 0.00 in0.0 mm 0.00 in/hr0.0 mm/hr 0.70 in17.8 mm
07:30 PM 61.3°F16.3°C 56.8°F13.8°C 85% 2.1 mph ENE3.4 kmh ENE 7.0 mph11.3 kmh 30.00 in1015.9 mb 0.00 in0.0 mm 0.00 in/hr0.0 mm/hr 0.70 in17.8 mm
07:40 PM 61.0°F16.1°C 55.5°F13.1°C 82% 7.3 mph ENE11.7 kmh ENE 12.0 mph19.3 kmh 30.00 in1015.9 mb 0.00 in0.0 mm 0.00 in/hr0.0 mm/hr 0.70 in17.8 mm
07:50 PM 60.7°F15.9°C 54.5°F12.5°C 80% 7.3 mph NE11.7 kmh NE 12.0 mph19.3 kmh 30.01 in1016.3 mb 0.00 in0.0 mm 0.00 in/hr0.0 mm/hr 0.70 in17.8 mm
08:00 PM 60.4°F15.8°C 54.2°F12.3°C 80% 3.6 mph NE5.8 kmh NE 8.0 mph12.9 kmh 30.02 in1016.6 mb 0.00 in0.0 mm 0.00 in/hr0.0 mm/hr 0.70 in17.8 mm
08:10 PM 60.0°F15.6°C 53.8°F12.1°C 80% 3.4 mph ENE5.5 kmh ENE 4.0 mph6.4 kmh 30.02 in1016.6 mb 0.00 in0.0 mm 0.00 in/hr0.0 mm/hr 0.70 in17.8 mm
08:20 PM 59.6°F15.3°C 53.8°F12.1°C 81% 0.1 mph NE0.2 kmh NE 1.0 mph1.6 kmh 30.03 in1016.9 mb 0.00 in0.0 mm 0.00 in/hr0.0 mm/hr 0.70 in17.8 mm
08:30 PM 59.3°F15.2°C 53.8°F12.1°C 82% 2.1 mph ENE3.4 kmh ENE 4.0 mph6.4 kmh 30.03 in1016.9 mb 0.00 in0.0 mm 0.00 in/hr0.0 mm/hr 0.70 in17.8 mm
08:40 PM 59.1°F15.1°C 53.3°F11.8°C 81% 1.9 mph ENE3.1 kmh ENE 2.0 mph3.2 kmh 30.03 in1016.9 mb 0.00 in0.0 mm 0.00 in/hr0.0 mm/hr 0.70 in17.8 mm
08:50 PM 59.1°F15.1°C 53.3°F11.8°C 81% 0.7 mph NE1.1 kmh NE 5.0 mph8.0 kmh 30.04 in1017.3 mb 0.00 in0.0 mm 0.00 in/hr0.0 mm/hr 0.70 in17.8 mm
09:00 PM 58.9°F14.9°C 53.1°F11.7°C 81% 2.1 mph ENE3.4 kmh ENE 5.0 mph8.0 kmh 30.04 in1017.3 mb 0.00 in0.0 mm 0.00 in/hr0.0 mm/hr 0.70 in17.8 mm
09:10 PM 58.7°F14.8°C 53.2°F11.8°C 82% 0.4 mph ENE0.6 kmh ENE 2.0 mph3.2 kmh 30.05 in1017.6 mb 0.00 in0.0 mm 0.00 in/hr0.0 mm/hr 0.70 in17.8 mm
09:20 PM 58.4°F14.7°C 52.9°F11.6°C 82% 1.4 mph ENE2.3 kmh ENE 2.0 mph3.2 kmh 30.05 in1017.6 mb 0.00 in0.0 mm 0.00 in/hr0.0 mm/hr 0.70 in17.8 mm
09:30 PM 58.3°F14.6°C 52.8°F11.6°C 82% 1.4 mph E2.3 kmh E 3.0 mph4.8 kmh 30.05 in1017.6 mb 0.00 in0.0 mm 0.00 in/hr0.0 mm/hr 0.70 in17.8 mm
09:40 PM 58.1°F14.5°C 53.0°F11.7°C 83% 0.3 mph E0.5 kmh E 1.0 mph1.6 kmh 30.05 in1017.6 mb 0.00 in0.0 mm 0.00 in/hr0.0 mm/hr 0.70 in17.8 mm
09:50 PM 57.9°F14.4°C 53.1°F11.7°C 84% Calm Calm 1.0 mph1.6 kmh 30.05 in1017.6 mb 0.00 in0.0 mm 0.00 in/hr0.0 mm/hr 0.70 in17.8 mm
10:00 PM 57.9°F14.4°C 53.1°F11.7°C 84% Calm Calm 1.0 mph1.6 kmh 30.06 in1017.9 mb 0.00 in0.0 mm 0.00 in/hr0.0 mm/hr 0.70 in17.8 mm
10:10 PM 58.0°F14.4°C 53.2°F11.8°C 84% Calm Calm -- 30.06 in1017.9 mb 0.00 in0.0 mm 0.00 in/hr0.0 mm/hr 0.70 in17.8 mm
10:20 PM 58.0°F14.4°C 53.5°F11.9°C 85% Calm Calm -- 30.06 in1017.9 mb 0.00 in0.0 mm 0.00 in/hr0.0 mm/hr 0.70 in17.8 mm
10:31 PM 57.9°F14.4°C 53.7°F12.1°C 86% Calm Calm -- 30.07 in1018.3 mb 0.00 in0.0 mm 0.00 in/hr0.0 mm/hr 0.70 in17.8 mm
10:40 PM 57.7°F14.3°C 53.2°F11.8°C 85% Calm Calm -- 30.07 in1018.3 mb 0.00 in0.0 mm 0.00 in/hr0.0 mm/hr 0.70 in17.8 mm
10:50 PM 57.6°F14.2°C 52.8°F11.6°C 84% Calm Calm -- 30.07 in1018.3 mb 0.00 in0.0 mm 0.00 in/hr0.0 mm/hr 0.70 in17.8 mm
11:00 PM 57.5°F14.2°C 52.7°F11.5°C 84% Calm Calm -- 30.07 in1018.3 mb 0.00 in0.0 mm 0.00 in/hr0.0 mm/hr 0.77 in19.6 mm
11:10 PM 57.2°F14.0°C 53.0°F11.7°C 86% Calm Calm -- 30.06 in1017.9 mb 0.00 in0.0 mm 0.00 in/hr0.0 mm/hr 0.77 in19.6 mm
11:20 PM 56.9°F13.8°C 52.8°F11.6°C 86% Calm Calm -- 30.07 in1018.3 mb 0.00 in0.0 mm 0.00 in/hr0.0 mm/hr 0.77 in19.6 mm
11:30 PM 56.6°F13.7°C 52.7°F11.5°C 87% Calm Calm -- 30.07 in1018.3 mb 0.00 in0.0 mm 0.00 in/hr0.0 mm/hr 0.77 in19.6 mm
11:40 PM 56.2°F13.4°C 52.7°F11.5°C 88% 1.7 mph SSE2.7 kmh SSE 3.0 mph4.8 kmh 30.07 in1018.3 mb 0.00 in0.0 mm 0.00 in/hr0.0 mm/hr 0.77 in19.6 mm
11:50 PM 56.0°F13.3°C 52.5°F11.4°C 88% 1.7 mph SW2.7 kmh SW 3.0 mph4.8 kmh 30.08 in1018.6 mb 0.00 in0.0 mm 0.00 in/hr0.0 mm/hr 0.77 in19.6 mm